Darstellungsparameter: Aktuell verwendete Einstellungen:
Skalierung der Graphiken ... ?
xyx+y,   Skalierungsfaktor:      Skalierung: Modus: x, Faktor: 1
Darstellungszeitraum ... ?
Vom - - bis: - -   Zeitraum: 26.07.2020 - 28.07.2020
Min/Max/Avg-Anzeige ... ?
Zeige MMA aktuell
Zeige MMA Monat
Zeige MMA alles
Zeige --A aktuell
Zeige --A Monat
Zeige --A alles
Keine MMA-Anzeige
MMA:
Average (ber die Originaldaten)
MMA-Basis: 26.07.2020 - 28.07.2020
Quicknavigation für Darstellung... ?
Tage:      1T, 2T, 3T, 5T -1T -2T -3T -5T +1T +2T +3T +5T
Wochen: 1W, 2W, 3W -1W -2W -3W +1W +2W +3W
Monate: 1M, 3M, 6M -1M -3M -6M +1M +3M +6M
Jahre:    1J, 3J, 5J, 10J -1J -3J -5J -10J +1J +3J +5J +10J
Nutze für die Darstellung ... ?
Originaldaten oder Mittelwerte auf ...
Stundenbasis Tagesbasis Wochenbasis
Monatsbasis Jahresbasis      Datenbasis: Original-Daten
Darstellen als:
Statistik (Auto) Statistik J:M      Darstellung:
Zur Graphik,    zurück zur Übersicht aller Sensoren.
 
Tabellarische Datenbersicht: ?
 
Sensor: Nr:Datum:Temp:Abs-Feuchte:Windchill:Wind:
Aussen-T/F 1 26-07-2020 00:00:00 19.3 C 12.27 g/m*3 19.3 C 0 km/h
2 26-07-2020 00:05:00 19.3 C 12.44 g/m*3 19.3 C 0 km/h
3 26-07-2020 00:10:00 19.2 C 12.37 g/m*3 19.2 C 0 km/h
4 26-07-2020 00:15:00 19.2 C 12.37 g/m*3 19.2 C 0 km/h
5 26-07-2020 00:20:00 19.1 C 12.29 g/m*3 19.1 C 0 km/h
6 26-07-2020 00:25:00 19.1 C 12.46 g/m*3 19.1 C 0 km/h
7 26-07-2020 00:30:00 19.1 C 12.46 g/m*3 19.1 C 0 km/h
8 26-07-2020 00:35:00 19.1 C 12.46 g/m*3 19.1 C 0 km/h
9 26-07-2020 00:40:00 19.1 C 12.46 g/m*3 19.1 C 0 km/h
10 26-07-2020 00:45:00 19.1 C 12.46 g/m*3 19.1 C 0 km/h
11 26-07-2020 00:50:00 19.2 C 12.53 g/m*3 19.2 C 0 km/h
12 26-07-2020 00:55:00 19.2 C 12.53 g/m*3 19.2 C 0 km/h
13 26-07-2020 01:00:00 19.2 C 12.53 g/m*3 19.2 C 0 km/h
14 26-07-2020 01:05:00 19.2 C 12.53 g/m*3 19.2 C 0 km/h
15 26-07-2020 01:10:00 19.2 C 12.7 g/m*3 19.2 C 0 km/h
16 26-07-2020 01:15:00 19.2 C 12.7 g/m*3 19.2 C 0 km/h
17 26-07-2020 01:20:00 19.2 C 12.7 g/m*3 19.2 C 1.6 km/h
18 26-07-2020 01:25:00 19.2 C 12.37 g/m*3 19.2 C 3.2 km/h
19 26-07-2020 01:30:00 19.6 C 12.32 g/m*3 19.6 C 9.7 km/h
20 26-07-2020 01:35:00 19.8 C 12.64 g/m*3 19.8 C 8.1 km/h
21 26-07-2020 01:40:00 20.1 C 13.04 g/m*3 20.1 C 11.3 km/h
22 26-07-2020 01:45:00 20.1 C 13.04 g/m*3 20.1 C 9.7 km/h
23 26-07-2020 01:50:00 20.2 C 13.11 g/m*3 20.2 C 12.9 km/h
24 26-07-2020 01:55:00 20.3 C 13.72 g/m*3 20.3 C 6.4 km/h
25 26-07-2020 02:00:00 20.1 C 13.56 g/m*3 20.1 C 14.5 km/h
Sensor: Nr:Datum:Temp:Abs-Feuchte:Windchill:Wind:
Aussen-T/F 26 26-07-2020 02:05:00 20 C 13.83 g/m*3 20 C 6.4 km/h
27 26-07-2020 02:10:00 19.8 C 13.84 g/m*3 19.8 C 8.1 km/h
28 26-07-2020 02:15:00 19.7 C 13.92 g/m*3 19.7 C 6.4 km/h
29 26-07-2020 02:20:00 19.5 C 13.76 g/m*3 19.5 C 4.8 km/h
30 26-07-2020 02:25:00 19.3 C 13.77 g/m*3 19.3 C 6.4 km/h
31 26-07-2020 02:30:00 19.2 C 13.85 g/m*3 19.2 C 6.4 km/h
32 26-07-2020 02:35:00 19.1 C 13.77 g/m*3 19.1 C 8.1 km/h
33 26-07-2020 02:40:00 19 C 13.85 g/m*3 19 C 6.4 km/h
34 26-07-2020 02:45:00 18.9 C 13.93 g/m*3 18.9 C 8.1 km/h
35 26-07-2020 02:50:00 18.8 C 14.01 g/m*3 18.8 C 9.7 km/h
36 26-07-2020 02:55:00 18.7 C 13.93 g/m*3 18.7 C 6.4 km/h
37 26-07-2020 03:00:00 18.6 C 14.01 g/m*3 18.6 C 6.4 km/h
38 26-07-2020 03:05:00 18.4 C 13.84 g/m*3 18.4 C 8.1 km/h
39 26-07-2020 03:10:00 18.3 C 13.92 g/m*3 18.3 C 3.2 km/h
40 26-07-2020 03:15:00 18.3 C 13.92 g/m*3 18.3 C 1.6 km/h
41 26-07-2020 03:20:00 18.3 C 14.07 g/m*3 18.3 C 1.6 km/h
42 26-07-2020 03:25:00 18.2 C 13.99 g/m*3 18.2 C 3.2 km/h
43 26-07-2020 03:30:00 18.2 C 13.99 g/m*3 18.2 C 3.2 km/h
44 26-07-2020 03:35:00 18.2 C 13.99 g/m*3 18.2 C 3.2 km/h
45 26-07-2020 03:40:00 18.1 C 14.06 g/m*3 18.1 C 4.8 km/h
46 26-07-2020 03:45:00 18 C 13.98 g/m*3 18 C 3.2 km/h
47 26-07-2020 03:50:00 17.9 C 13.89 g/m*3 17.9 C 4.8 km/h
48 26-07-2020 03:55:00 17.9 C 13.89 g/m*3 17.9 C 4.8 km/h
49 26-07-2020 04:00:00 17.8 C 13.81 g/m*3 17.8 C 4.8 km/h
50 26-07-2020 04:05:00 17.8 C 13.81 g/m*3 17.8 C 3.2 km/h
Sensor: Nr:Datum:Temp:Abs-Feuchte:Windchill:Wind:
Aussen-T/F 51 26-07-2020 04:10:00 17.7 C 13.88 g/m*3 17.7 C 4.8 km/h
52 26-07-2020 04:15:00 17.7 C 13.88 g/m*3 17.7 C 3.2 km/h
53 26-07-2020 04:20:00 17.7 C 13.88 g/m*3 17.7 C 1.6 km/h
54 26-07-2020 04:25:00 17.7 C 13.88 g/m*3 17.7 C 1.6 km/h
55 26-07-2020 04:30:00 17.6 C 13.8 g/m*3 17.6 C 3.2 km/h
56 26-07-2020 04:35:00 17.6 C 13.8 g/m*3 17.6 C 3.2 km/h
57 26-07-2020 04:40:00 17.5 C 13.87 g/m*3 17.5 C 3.2 km/h
58 26-07-2020 04:45:00 17.4 C 13.78 g/m*3 17.4 C 3.2 km/h
59 26-07-2020 04:50:00 17.4 C 13.78 g/m*3 17.4 C 3.2 km/h
60 26-07-2020 04:55:00 17.4 C 13.78 g/m*3 17.4 C 1.6 km/h
61 26-07-2020 05:00:00 17.3 C 13.7 g/m*3 17.3 C 3.2 km/h
62 26-07-2020 05:05:00 17.3 C 13.7 g/m*3 17.3 C 1.6 km/h
63 26-07-2020 05:10:00 17.3 C 13.7 g/m*3 17.3 C 0 km/h
64 26-07-2020 05:15:00 17.3 C 13.7 g/m*3 17.3 C 0 km/h
65 26-07-2020 05:20:00 17.3 C 13.7 g/m*3 17.3 C 1.6 km/h
66 26-07-2020 05:25:00 17.2 C 13.62 g/m*3 17.2 C 3.2 km/h
67 26-07-2020 05:30:00 17.2 C 13.77 g/m*3 17.2 C 3.2 km/h
68 26-07-2020 05:35:00 17.2 C 13.77 g/m*3 17.2 C 3.2 km/h
69 26-07-2020 05:40:00 17.2 C 13.77 g/m*3 17.2 C 3.2 km/h
70 26-07-2020 05:45:00 17.1 C 13.68 g/m*3 17.1 C 0 km/h
71 26-07-2020 05:50:00 17.1 C 13.68 g/m*3 17.1 C 4.8 km/h
72 26-07-2020 05:55:00 17.1 C 13.68 g/m*3 17.1 C 4.8 km/h
73 26-07-2020 06:00:00 17.1 C 13.68 g/m*3 17.1 C 1.6 km/h
74 26-07-2020 06:05:00 17.1 C 13.68 g/m*3 17.1 C 1.6 km/h
75 26-07-2020 06:10:00 17.1 C 13.68 g/m*3 17.1 C 1.6 km/h
Sensor: Nr:Datum:Temp:Abs-Feuchte:Windchill:Wind:
Aussen-T/F 76 26-07-2020 06:15:00 17.1 C 13.68 g/m*3 17.1 C 1.6 km/h
77 26-07-2020 06:20:00 17.1 C 13.68 g/m*3 17.1 C 4.8 km/h
78 26-07-2020 06:25:00 17.1 C 13.68 g/m*3 17.1 C 4.8 km/h
79 26-07-2020 06:30:00 17.1 C 13.68 g/m*3 17.1 C 1.6 km/h
80 26-07-2020 06:35:00 17.1 C 13.68 g/m*3 17.1 C 4.8 km/h
81 26-07-2020 06:40:00 17.1 C 13.68 g/m*3 17.1 C 0 km/h
82 26-07-2020 06:45:00 17.2 C 13.77 g/m*3 17.2 C 1.6 km/h
83 26-07-2020 06:50:00 17.2 C 13.77 g/m*3 17.2 C 4.8 km/h
84 26-07-2020 06:55:00 17.3 C 13.85 g/m*3 17.3 C 0 km/h
85 26-07-2020 07:00:00 17.4 C 13.93 g/m*3 17.4 C 0 km/h
86 26-07-2020 07:05:00 17.5 C 14.01 g/m*3 17.5 C 1.6 km/h
87 26-07-2020 07:10:00 17.6 C 13.95 g/m*3 17.6 C 3.2 km/h
88 26-07-2020 07:15:00 17.7 C 14.03 g/m*3 17.7 C 3.2 km/h
89 26-07-2020 07:20:00 17.8 C 13.96 g/m*3 17.8 C 9.7 km/h
90 26-07-2020 07:25:00 18.1 C 13.91 g/m*3 18.1 C 9.7 km/h
91 26-07-2020 07:30:00 18.4 C 14 g/m*3 18.4 C 11.3 km/h
92 26-07-2020 07:35:00 18.7 C 13.93 g/m*3 18.7 C 12.9 km/h
93 26-07-2020 07:40:00 19 C 14.01 g/m*3 19 C 11.3 km/h
94 26-07-2020 07:45:00 19.3 C 14.1 g/m*3 19.3 C 9.7 km/h
95 26-07-2020 07:50:00 19.4 C 13.85 g/m*3 19.4 C 12.9 km/h
96 26-07-2020 07:55:00 19.5 C 13.93 g/m*3 19.5 C 9.7 km/h
97 26-07-2020 08:00:00 19.4 C 13.85 g/m*3 19.4 C 6.4 km/h
98 26-07-2020 08:05:00 19.3 C 13.77 g/m*3 19.3 C 8.1 km/h
99 26-07-2020 08:10:00 19.2 C 13.69 g/m*3 19.2 C 11.3 km/h
100 26-07-2020 08:15:00 19.3 C 13.77 g/m*3 19.3 C 11.3 km/h
Sensor: Nr:Datum:Temp:Abs-Feuchte:Windchill:Wind:
Aussen-T/F 101 26-07-2020 08:20:00 19.3 C 13.77 g/m*3 19.3 C 14.5 km/h
102 26-07-2020 08:25:00 19.4 C 13.68 g/m*3 19.4 C 14.5 km/h
103 26-07-2020 08:30:00 19.6 C 13.84 g/m*3 19.6 C 16.1 km/h
104 26-07-2020 08:35:00 19.6 C 13.67 g/m*3 19.6 C 14.5 km/h
105 26-07-2020 08:40:00 19.8 C 13.84 g/m*3 19.8 C 20.9 km/h
106 26-07-2020 08:45:00 19.9 C 13.74 g/m*3 19.9 C 14.5 km/h
107 26-07-2020 08:50:00 20.1 C 14.08 g/m*3 20.1 C 9.7 km/h
108 26-07-2020 08:55:00 20.2 C 13.81 g/m*3 20.2 C 16.1 km/h
109 26-07-2020 09:00:00 20.2 C 13.81 g/m*3 20.2 C 17.7 km/h
110 26-07-2020 09:05:00 20.2 C 14.16 g/m*3 20.2 C 11.3 km/h
111 26-07-2020 09:10:00 20.2 C 13.99 g/m*3 20.2 C 12.9 km/h
112 26-07-2020 09:15:00 20.3 C 14.07 g/m*3 20.3 C 14.5 km/h
113 26-07-2020 09:20:00 20.5 C 14.06 g/m*3 20.5 C 11.3 km/h
114 26-07-2020 09:25:00 20.6 C 13.96 g/m*3 20.6 C 9.7 km/h
115 26-07-2020 09:30:00 20.7 C 13.86 g/m*3 20.7 C 14.5 km/h
116 26-07-2020 09:35:00 20.8 C 14.12 g/m*3 20.8 C 12.9 km/h
117 26-07-2020 09:40:00 20.9 C 14.02 g/m*3 20.9 C 12.9 km/h
118 26-07-2020 09:45:00 20.9 C 14.02 g/m*3 20.9 C 9.7 km/h
119 26-07-2020 09:50:00 20.9 C 13.84 g/m*3 20.9 C 6.4 km/h
120 26-07-2020 09:55:00 21 C 13.74 g/m*3 21 C 9.7 km/h
121 26-07-2020 10:00:00 20.9 C 13.48 g/m*3 20.9 C 16.1 km/h
122 26-07-2020 10:05:00 20.9 C 13.48 g/m*3 20.9 C 12.9 km/h
123 26-07-2020 10:10:00 20.9 C 13.48 g/m*3 20.9 C 11.3 km/h
124 26-07-2020 10:15:00 21 C 13.56 g/m*3 21 C 16.1 km/h
125 26-07-2020 10:20:00 21.2 C 13.71 g/m*3 21.2 C 14.5 km/h
Sensor: Nr:Datum:Temp:Abs-Feuchte:Windchill:Wind:
Aussen-T/F 126 26-07-2020 10:25:00 21.4 C 13.5 g/m*3 21.4 C 19.3 km/h
127 26-07-2020 10:30:00 21.3 C 13.42 g/m*3 21.3 C 17.7 km/h
128 26-07-2020 10:35:00 21.3 C 13.42 g/m*3 21.3 C 17.7 km/h
129 26-07-2020 10:40:00 21.3 C 13.61 g/m*3 21.3 C 12.9 km/h
130 26-07-2020 10:45:00 21.3 C 13.61 g/m*3 21.3 C 17.7 km/h
131 26-07-2020 10:50:00 21.3 C 13.79 g/m*3 21.3 C 14.5 km/h
132 26-07-2020 10:55:00 21.4 C 13.69 g/m*3 21.4 C 9.7 km/h
133 26-07-2020 11:00:00 21.4 C 13.69 g/m*3 21.4 C 17.7 km/h
134 26-07-2020 11:05:00 21.6 C 13.85 g/m*3 21.6 C 14.5 km/h
135 26-07-2020 11:10:00 21.7 C 13.73 g/m*3 21.7 C 14.5 km/h
136 26-07-2020 11:15:00 21.9 C 13.89 g/m*3 21.9 C 16.1 km/h
137 26-07-2020 11:20:00 22 C 13.97 g/m*3 22 C 8.1 km/h
138 26-07-2020 11:25:00 22 C 13.78 g/m*3 22 C 9.7 km/h
139 26-07-2020 11:30:00 22.1 C 13.86 g/m*3 22.1 C 11.3 km/h
140 26-07-2020 11:35:00 22.2 C 13.94 g/m*3 22.2 C 11.3 km/h
141 26-07-2020 11:40:00 22.4 C 13.5 g/m*3 22.4 C 9.7 km/h
142 26-07-2020 11:45:00 22.6 C 13.66 g/m*3 22.6 C 11.3 km/h
143 26-07-2020 11:50:00 22.7 C 13.74 g/m*3 22.7 C 11.3 km/h
144 26-07-2020 11:55:00 22.8 C 13.41 g/m*3 22.8 C 14.5 km/h
145 26-07-2020 12:00:00 23 C 13.57 g/m*3 23 C 11.3 km/h
146 26-07-2020 12:05:00 23.1 C 13.44 g/m*3 23.1 C 8.1 km/h
147 26-07-2020 12:10:00 23.4 C 13.46 g/m*3 23.4 C 12.9 km/h
148 26-07-2020 12:15:00 23.6 C 13.4 g/m*3 23.6 C 14.5 km/h
149 26-07-2020 12:20:00 23.7 C 13.26 g/m*3 23.7 C 37 km/h
150 26-07-2020 12:25:00 21.7 C 14.12 g/m*3 21.7 C 37 km/h
Sensor: Nr:Datum:Temp:Abs-Feuchte:Windchill:Wind:
Aussen-T/F 151 26-07-2020 12:30:00 20 C 13.65 g/m*3 20 C 20.9 km/h
152 26-07-2020 12:35:00 19.2 C 13.69 g/m*3 19.2 C 11.3 km/h
153 26-07-2020 12:40:00 18.9 C 13.93 g/m*3 18.9 C 6.4 km/h
154 26-07-2020 12:45:00 19 C 14.5 g/m*3 19 C 3.2 km/h
155 26-07-2020 12:50:00 19.1 C 14.75 g/m*3 19.1 C 1.6 km/h
156 26-07-2020 12:55:00 19.2 C 14.84 g/m*3 19.2 C 4.8 km/h
157 26-07-2020 13:00:00 19.4 C 15.18 g/m*3 19.4 C 3.2 km/h
158 26-07-2020 13:05:00 19.7 C 15.11 g/m*3 19.7 C 11.3 km/h
159 26-07-2020 13:10:00 19.8 C 15.37 g/m*3 19.8 C 9.7 km/h
160 26-07-2020 13:15:00 19.8 C 14.35 g/m*3 19.8 C 11.3 km/h
161 26-07-2020 13:20:00 20.2 C 14.16 g/m*3 20.2 C 8.1 km/h
162 26-07-2020 13:25:00 20.6 C 13.6 g/m*3 20.6 C 12.9 km/h
163 26-07-2020 13:30:00 20.9 C 13.3 g/m*3 20.9 C 12.9 km/h
164 26-07-2020 13:35:00 21.3 C 12.86 g/m*3 21.3 C 12.9 km/h
165 26-07-2020 13:40:00 21.6 C 12.71 g/m*3 21.6 C 14.5 km/h
166 26-07-2020 13:45:00 21.9 C 12.35 g/m*3 21.9 C 9.7 km/h
167 26-07-2020 13:50:00 22.3 C 12.83 g/m*3 22.3 C 11.3 km/h
168 26-07-2020 13:55:00 22.7 C 12.32 g/m*3 22.7 C 14.5 km/h
169 26-07-2020 14:00:00 22.9 C 12.26 g/m*3 22.9 C 11.3 km/h
170 26-07-2020 14:05:00 23.1 C 11.99 g/m*3 23.1 C 12.9 km/h
171 26-07-2020 14:10:00 23.2 C 11.85 g/m*3 23.2 C 11.3 km/h
172 26-07-2020 14:15:00 23.3 C 11.92 g/m*3 23.3 C 17.7 km/h
173 26-07-2020 14:20:00 23.3 C 11.08 g/m*3 23.3 C 20.9 km/h
174 26-07-2020 14:25:00 23.4 C 11.14 g/m*3 23.4 C 16.1 km/h
175 26-07-2020 14:30:00 23.6 C 11.27 g/m*3 23.6 C 12.9 km/h
Sensor: Nr:Datum:Temp:Abs-Feuchte:Windchill:Wind:
Aussen-T/F 176 26-07-2020 14:35:00 23.7 C 11.12 g/m*3 23.7 C 19.3 km/h
177 26-07-2020 14:40:00 23.9 C 11.03 g/m*3 23.9 C 16.1 km/h
178 26-07-2020 14:45:00 24.1 C 11.82 g/m*3 24.1 C 14.5 km/h
179 26-07-2020 14:50:00 24.3 C 11.29 g/m*3 24.3 C 12.9 km/h
180 26-07-2020 14:55:00 24.3 C 11.29 g/m*3 24.3 C 11.3 km/h
181 26-07-2020 15:00:00 24.3 C 11.73 g/m*3 24.3 C 11.3 km/h
182 26-07-2020 15:05:00 24.5 C 11.64 g/m*3 24.5 C 9.7 km/h
183 26-07-2020 15:10:00 24.7 C 11.54 g/m*3 24.7 C 14.5 km/h
184 26-07-2020 15:15:00 24.7 C 10.86 g/m*3 24.7 C 16.1 km/h
185 26-07-2020 15:20:00 24.7 C 11.32 g/m*3 24.7 C 12.9 km/h
186 26-07-2020 15:25:00 24.8 C 10.93 g/m*3 24.8 C 16.1 km/h
187 26-07-2020 15:30:00 24.7 C 11.09 g/m*3 24.7 C 17.7 km/h
188 26-07-2020 15:35:00 24.6 C 11.03 g/m*3 24.6 C 14.5 km/h
189 26-07-2020 15:40:00 24.4 C 10.9 g/m*3 24.4 C 19.3 km/h
190 26-07-2020 15:45:00 24.2 C 10.78 g/m*3 24.2 C 14.5 km/h
191 26-07-2020 15:50:00 24.1 C 11.16 g/m*3 24.1 C 16.1 km/h
192 26-07-2020 15:55:00 24.4 C 10.9 g/m*3 24.4 C 22.5 km/h
193 26-07-2020 16:00:00 24.9 C 10.76 g/m*3 24.9 C 16.1 km/h
194 26-07-2020 16:05:00 25.3 C 10.53 g/m*3 25.3 C 14.5 km/h
195 26-07-2020 16:10:00 25.5 C 10.89 g/m*3 25.5 C 19.3 km/h
196 26-07-2020 16:15:00 25.5 C 11.13 g/m*3 25.5 C 8.1 km/h
197 26-07-2020 16:20:00 25.6 C 10.48 g/m*3 25.6 C 11.3 km/h
198 26-07-2020 16:25:00 25.2 C 10.48 g/m*3 25.2 C 17.7 km/h
199 26-07-2020 16:30:00 25.5 C 10.65 g/m*3 25.5 C 12.9 km/h
200 26-07-2020 16:35:00 26.2 C 10.59 g/m*3 26.2 C 12.9 km/h
Sensor: Nr:Datum:Temp:Abs-Feuchte:Windchill:Wind:
Aussen-T/F 201 26-07-2020 16:40:00 26.1 C 10.77 g/m*3 26.1 C 11.3 km/h
202 26-07-2020 16:45:00 25.8 C 10.59 g/m*3 25.8 C 12.9 km/h
203 26-07-2020 16:50:00 26 C 10.47 g/m*3 26 C 14.5 km/h
204 26-07-2020 16:55:00 25.9 C 10.65 g/m*3 25.9 C 11.3 km/h
205 26-07-2020 17:00:00 25.6 C 10 g/m*3 25.6 C 12.9 km/h
206 26-07-2020 17:05:00 25.6 C 10.24 g/m*3 25.6 C 16.1 km/h
207 26-07-2020 17:10:00 25.7 C 10.53 g/m*3 25.7 C 11.3 km/h
208 26-07-2020 17:15:00 25.9 C 10.65 g/m*3 25.9 C 9.7 km/h
209 26-07-2020 17:20:00 26.3 C 10.4 g/m*3 26.3 C 22.5 km/h
210 26-07-2020 17:25:00 26.4 C 10.46 g/m*3 26.4 C 20.9 km/h
211 26-07-2020 17:30:00 26.4 C 10.46 g/m*3 26.4 C 9.7 km/h
212 26-07-2020 17:35:00 26.6 C 10.07 g/m*3 26.6 C 14.5 km/h
213 26-07-2020 17:40:00 26.8 C 9.93 g/m*3 26.8 C 14.5 km/h
214 26-07-2020 17:45:00 26.7 C 9.87 g/m*3 26.7 C 14.5 km/h
215 26-07-2020 17:50:00 26.7 C 10.12 g/m*3 26.7 C 9.7 km/h
216 26-07-2020 17:55:00 26.9 C 10.24 g/m*3 26.9 C 11.3 km/h
217 26-07-2020 18:00:00 27.1 C 10.35 g/m*3 27.1 C 14.5 km/h
218 26-07-2020 18:05:00 27.2 C 10.41 g/m*3 27.2 C 11.3 km/h
219 26-07-2020 18:10:00 26.9 C 10.24 g/m*3 26.9 C 11.3 km/h
220 26-07-2020 18:15:00 26.2 C 10.59 g/m*3 26.2 C 12.9 km/h
221 26-07-2020 18:20:00 26 C 10.47 g/m*3 26 C 12.9 km/h
222 26-07-2020 18:25:00 26.3 C 10.15 g/m*3 26.3 C 12.9 km/h
223 26-07-2020 18:30:00 26.3 C 9.9 g/m*3 26.3 C 14.5 km/h
224 26-07-2020 18:35:00 25.9 C 10.17 g/m*3 25.9 C 12.9 km/h
225 26-07-2020 18:40:00 25.6 C 10.24 g/m*3 25.6 C 11.3 km/h
Sensor: Nr:Datum:Temp:Abs-Feuchte:Windchill:Wind:
Aussen-T/F 226 26-07-2020 18:45:00 25.3 C 10.07 g/m*3 25.3 C 16.1 km/h
227 26-07-2020 18:50:00 25.3 C 10.07 g/m*3 25.3 C 16.1 km/h
228 26-07-2020 18:55:00 25.1 C 10.19 g/m*3 25.1 C 16.1 km/h
229 26-07-2020 19:00:00 24.8 C 10.24 g/m*3 24.8 C 16.1 km/h
230 26-07-2020 19:05:00 24.6 C 10.13 g/m*3 24.6 C 16.1 km/h
231 26-07-2020 19:10:00 24.3 C 10.18 g/m*3 24.3 C 11.3 km/h
232 26-07-2020 19:15:00 24.2 C 10.12 g/m*3 24.2 C 11.3 km/h
233 26-07-2020 19:20:00 24 C 10.23 g/m*3 24 C 16.1 km/h
234 26-07-2020 19:25:00 23.9 C 10.6 g/m*3 23.9 C 14.5 km/h
235 26-07-2020 19:30:00 23.9 C 10.82 g/m*3 23.9 C 16.1 km/h
236 26-07-2020 19:35:00 23.8 C 10.76 g/m*3 23.8 C 14.5 km/h
237 26-07-2020 19:40:00 23.7 C 10.91 g/m*3 23.7 C 11.3 km/h
238 26-07-2020 19:45:00 23.5 C 10.79 g/m*3 23.5 C 11.3 km/h
239 26-07-2020 19:50:00 23.4 C 10.72 g/m*3 23.4 C 9.7 km/h
240 26-07-2020 19:55:00 23.2 C 10.6 g/m*3 23.2 C 12.9 km/h
241 26-07-2020 20:00:00 22.8 C 10.57 g/m*3 22.8 C 12.9 km/h
242 26-07-2020 20:05:00 22.6 C 10.45 g/m*3 22.6 C 12.9 km/h
243 26-07-2020 20:10:00 22.5 C 10.59 g/m*3 22.5 C 4.8 km/h
244 26-07-2020 20:15:00 22.4 C 11.12 g/m*3 22.4 C 1.6 km/h
245 26-07-2020 20:20:00 22.3 C 11.06 g/m*3 22.3 C 3.2 km/h
246 26-07-2020 20:25:00 22.1 C 11.13 g/m*3 22.1 C 1.6 km/h
247 26-07-2020 20:30:00 21.9 C 11 g/m*3 21.9 C 0 km/h
248 26-07-2020 20:35:00 21.9 C 11.39 g/m*3 21.9 C 1.6 km/h
249 26-07-2020 20:40:00 21.8 C 11.13 g/m*3 21.8 C 3.2 km/h
250 26-07-2020 20:45:00 21.8 C 10.94 g/m*3 21.8 C 3.2 km/h
Sensor: Nr:Datum:Temp:Abs-Feuchte:Windchill:Wind:
Aussen-T/F 251 26-07-2020 20:50:00 21.8 C 10.94 g/m*3 21.8 C 1.6 km/h
252 26-07-2020 20:55:00 21.8 C 11.13 g/m*3 21.8 C 0 km/h
253 26-07-2020 21:00:00 21.9 C 11.39 g/m*3 21.9 C 1.6 km/h
254 26-07-2020 21:05:00 21.8 C 11.9 g/m*3 21.8 C 0 km/h
255 26-07-2020 21:10:00 21.6 C 11.57 g/m*3 21.6 C 1.6 km/h
256 26-07-2020 21:15:00 21.3 C 11.56 g/m*3 21.3 C 1.6 km/h
257 26-07-2020 21:20:00 20.9 C 11.47 g/m*3 20.9 C 0 km/h
258 26-07-2020 21:25:00 20.6 C 11.28 g/m*3 20.6 C 1.6 km/h
259 26-07-2020 21:30:00 20.3 C 11.26 g/m*3 20.3 C 3.2 km/h
260 26-07-2020 21:35:00 20.1 C 11.3 g/m*3 20.1 C 0 km/h
261 26-07-2020 21:40:00 19.8 C 11.27 g/m*3 19.8 C 1.6 km/h
262 26-07-2020 21:45:00 19.7 C 11.38 g/m*3 19.7 C 3.2 km/h
263 26-07-2020 21:50:00 19.6 C 11.31 g/m*3 19.6 C 1.6 km/h
264 26-07-2020 21:55:00 19.4 C 11.18 g/m*3 19.4 C 0 km/h
265 26-07-2020 22:00:00 19.4 C 11.35 g/m*3 19.4 C 0 km/h
266 26-07-2020 22:05:00 19.3 C 11.28 g/m*3 19.3 C 0 km/h
267 26-07-2020 22:10:00 19.2 C 11.21 g/m*3 19.2 C 6.4 km/h
268 26-07-2020 22:15:00 19.1 C 11.15 g/m*3 19.1 C 6.4 km/h
269 26-07-2020 22:20:00 18.9 C 11.18 g/m*3 18.9 C 4.8 km/h
270 26-07-2020 22:25:00 18.8 C 11.11 g/m*3 18.8 C 6.4 km/h
271 26-07-2020 22:30:00 18.7 C 11.21 g/m*3 18.7 C 3.2 km/h
272 26-07-2020 22:35:00 18.6 C 11.14 g/m*3 18.6 C 6.4 km/h
273 26-07-2020 22:40:00 18.5 C 11.08 g/m*3 18.5 C 3.2 km/h
274 26-07-2020 22:45:00 18.4 C 11.17 g/m*3 18.4 C 4.8 km/h
275 26-07-2020 22:50:00 18.2 C 11.04 g/m*3 18.2 C 4.8 km/h
Sensor: Nr:Datum:Temp:Abs-Feuchte:Windchill:Wind:
Aussen-T/F 276 26-07-2020 22:55:00 18.1 C 10.97 g/m*3 18.1 C 0 km/h
277 26-07-2020 23:00:00 18 C 11.06 g/m*3 18 C 4.8 km/h
278 26-07-2020 23:05:00 17.8 C 11.08 g/m*3 17.8 C 6.4 km/h
279 26-07-2020 23:10:00 17.7 C 11.16 g/m*3 17.7 C 1.6 km/h
280 26-07-2020 23:15:00 17.6 C 11.1 g/m*3 17.6 C 0 km/h
281 26-07-2020 23:20:00 17.5 C 11.18 g/m*3 17.5 C 0 km/h
282 26-07-2020 23:25:00 17.3 C 11.05 g/m*3 17.3 C 0 km/h
283 26-07-2020 23:30:00 17.3 C 11.2 g/m*3 17.3 C 0 km/h
284 26-07-2020 23:35:00 17.2 C 11.13 g/m*3 17.2 C 0 km/h
285 26-07-2020 23:40:00 17.1 C 11.21 g/m*3 17.1 C 0 km/h
286 26-07-2020 23:45:00 16.9 C 11.22 g/m*3 16.9 C 0 km/h
287 26-07-2020 23:50:00 16.9 C 11.22 g/m*3 16.9 C 0 km/h
288 26-07-2020 23:55:00 16.8 C 11.29 g/m*3 16.8 C 0 km/h
289 27-07-2020 00:00:00 16.8 C 11.29 g/m*3 16.8 C 0 km/h
290 27-07-2020 00:05:00 16.7 C 11.37 g/m*3 16.7 C 0 km/h
291 27-07-2020 00:10:00 16.7 C 11.37 g/m*3 16.7 C 0 km/h
292 27-07-2020 00:15:00 16.7 C 11.37 g/m*3 16.7 C 0 km/h
293 27-07-2020 00:20:00 16.7 C 11.37 g/m*3 16.7 C 0 km/h
294 27-07-2020 00:25:00 16.7 C 11.37 g/m*3 16.7 C 0 km/h
295 27-07-2020 00:30:00 16.7 C 11.37 g/m*3 16.7 C 0 km/h
296 27-07-2020 00:35:00 16.7 C 11.37 g/m*3 16.7 C 0 km/h
297 27-07-2020 00:40:00 16.6 C 11.3 g/m*3 16.6 C 0 km/h
298 27-07-2020 00:45:00 16.6 C 11.3 g/m*3 16.6 C 0 km/h
299 27-07-2020 00:50:00 16.5 C 11.23 g/m*3 16.5 C 0 km/h
300 27-07-2020 00:55:00 16.3 C 11.1 g/m*3 16.3 C 0 km/h
Sensor: Nr:Datum:Temp:Abs-Feuchte:Windchill:Wind:
Aussen-T/F 301 27-07-2020 01:00:00 16.2 C 11.03 g/m*3 16.2 C 0 km/h
302 27-07-2020 01:05:00 16 C 10.9 g/m*3 16 C 0 km/h
303 27-07-2020 01:10:00 15.9 C 10.97 g/m*3 15.9 C 0 km/h
304 27-07-2020 01:15:00 15.8 C 10.9 g/m*3 15.8 C 0 km/h
305 27-07-2020 01:20:00 15.6 C 10.77 g/m*3 15.6 C 0 km/h
306 27-07-2020 01:25:00 15.5 C 10.71 g/m*3 15.5 C 0 km/h
307 27-07-2020 01:30:00 15.3 C 10.71 g/m*3 15.3 C 0 km/h
308 27-07-2020 01:35:00 15.2 C 10.64 g/m*3 15.2 C 0 km/h
309 27-07-2020 01:40:00 15.1 C 10.71 g/m*3 15.1 C 0 km/h
310 27-07-2020 01:45:00 14.9 C 10.58 g/m*3 14.9 C 0 km/h
311 27-07-2020 01:50:00 14.8 C 10.51 g/m*3 14.8 C 0 km/h
312 27-07-2020 01:55:00 14.7 C 10.58 g/m*3 14.7 C 0 km/h
313 27-07-2020 02:00:00 14.7 C 10.58 g/m*3 14.7 C 0 km/h
314 27-07-2020 02:05:00 14.6 C 10.51 g/m*3 14.6 C 0 km/h
315 27-07-2020 02:10:00 14.6 C 10.64 g/m*3 14.6 C 0 km/h
316 27-07-2020 02:15:00 14.5 C 10.57 g/m*3 14.5 C 0 km/h
317 27-07-2020 02:20:00 14.4 C 10.51 g/m*3 14.4 C 0 km/h
318 27-07-2020 02:25:00 14.4 C 10.51 g/m*3 14.4 C 0 km/h
319 27-07-2020 02:30:00 14.4 C 10.51 g/m*3 14.4 C 0 km/h
320 27-07-2020 02:35:00 14.3 C 10.44 g/m*3 14.3 C 0 km/h
321 27-07-2020 02:40:00 14.2 C 10.38 g/m*3 14.2 C 0 km/h
322 27-07-2020 02:45:00 14.1 C 10.44 g/m*3 14.1 C 0 km/h
323 27-07-2020 02:50:00 14.1 C 10.44 g/m*3 14.1 C 0 km/h
324 27-07-2020 02:55:00 14 C 10.37 g/m*3 14 C 0 km/h
325 27-07-2020 03:00:00 13.9 C 10.43 g/m*3 13.9 C 0 km/h
Sensor: Nr:Datum:Temp:Abs-Feuchte:Windchill:Wind:
Aussen-T/F 326 27-07-2020 03:05:00 13.8 C 10.37 g/m*3 13.8 C 0 km/h
327 27-07-2020 03:10:00 13.8 C 10.37 g/m*3 13.8 C 0 km/h
328 27-07-2020 03:15:00 13.7 C 10.3 g/m*3 13.7 C 0 km/h
329 27-07-2020 03:20:00 13.6 C 10.24 g/m*3 13.6 C 0 km/h
330 27-07-2020 03:25:00 13.5 C 10.18 g/m*3 13.5 C 0 km/h
331 27-07-2020 03:30:00 13.4 C 10.23 g/m*3 13.4 C 0 km/h
332 27-07-2020 03:35:00 13.4 C 10.23 g/m*3 13.4 C 0 km/h
333 27-07-2020 03:40:00 13.3 C 10.17 g/m*3 13.3 C 0 km/h
334 27-07-2020 03:45:00 13.3 C 10.17 g/m*3 13.3 C 0 km/h
335 27-07-2020 03:50:00 13.2 C 10.1 g/m*3 13.2 C 0 km/h
336 27-07-2020 03:55:00 13.1 C 10.04 g/m*3 13.1 C 0 km/h
337 27-07-2020 04:00:00 13.1 C 10.04 g/m*3 13.1 C 0 km/h
338 27-07-2020 04:05:00 13.1 C 10.16 g/m*3 13.1 C 0 km/h
339 27-07-2020 04:10:00 13 C 10.09 g/m*3 13 C 0 km/h
340 27-07-2020 04:15:00 12.9 C 10.03 g/m*3 12.9 C 0 km/h
341 27-07-2020 04:20:00 12.9 C 10.03 g/m*3 12.9 C 0 km/h
342 27-07-2020 04:25:00 12.8 C 9.97 g/m*3 12.8 C 0 km/h
343 27-07-2020 04:30:00 12.8 C 9.97 g/m*3 12.8 C 0 km/h
344 27-07-2020 04:35:00 12.8 C 10.08 g/m*3 12.8 C 0 km/h
345 27-07-2020 04:40:00 12.7 C 10.02 g/m*3 12.7 C 0 km/h
346 27-07-2020 04:45:00 12.7 C 10.02 g/m*3 12.7 C 0 km/h
347 27-07-2020 04:50:00 12.7 C 10.02 g/m*3 12.7 C 0 km/h
348 27-07-2020 04:55:00 12.7 C 10.13 g/m*3 12.7 C 0 km/h
349 27-07-2020 05:00:00 12.7 C 10.13 g/m*3 12.7 C 0 km/h
350 27-07-2020 05:05:00 12.7 C 10.24 g/m*3 12.7 C 0 km/h
Sensor: Nr:Datum:Temp:Abs-Feuchte:Windchill:Wind:
Aussen-T/F 351 27-07-2020 05:10:00 12.8 C 10.3 g/m*3 12.8 C 0 km/h
352 27-07-2020 05:15:00 12.8 C 10.3 g/m*3 12.8 C 0 km/h
353 27-07-2020 05:20:00 12.8 C 10.3 g/m*3 12.8 C 0 km/h
354 27-07-2020 05:25:00 12.8 C 10.3 g/m*3 12.8 C 0 km/h
355 27-07-2020 05:30:00 12.8 C 10.3 g/m*3 12.8 C 0 km/h
356 27-07-2020 05:35:00 12.8 C 10.3 g/m*3 12.8 C 0 km/h
357 27-07-2020 05:40:00 12.8 C 10.3 g/m*3 12.8 C 0 km/h
358 27-07-2020 05:45:00 12.8 C 10.3 g/m*3 12.8 C 0 km/h
359 27-07-2020 05:50:00 12.8 C 10.3 g/m*3 12.8 C 0 km/h
360 27-07-2020 05:55:00 12.8 C 10.3 g/m*3 12.8 C 0 km/h
361 27-07-2020 06:00:00 12.8 C 10.3 g/m*3 12.8 C 0 km/h
362 27-07-2020 06:05:00 12.7 C 10.24 g/m*3 12.7 C 0 km/h
363 27-07-2020 06:10:00 12.7 C 10.24 g/m*3 12.7 C 0 km/h
364 27-07-2020 06:15:00 12.8 C 10.3 g/m*3 12.8 C 0 km/h
365 27-07-2020 06:20:00 12.9 C 10.48 g/m*3 12.9 C 0 km/h
366 27-07-2020 06:25:00 12.9 C 10.48 g/m*3 12.9 C 0 km/h
367 27-07-2020 06:30:00 13 C 10.55 g/m*3 13 C 0 km/h
368 27-07-2020 06:35:00 13 C 10.43 g/m*3 13 C 0 km/h
369 27-07-2020 06:40:00 12.9 C 10.37 g/m*3 12.9 C 0 km/h
370 27-07-2020 06:45:00 12.9 C 10.37 g/m*3 12.9 C 0 km/h
371 27-07-2020 06:50:00 12.9 C 10.37 g/m*3 12.9 C 0 km/h
372 27-07-2020 06:55:00 12.9 C 10.37 g/m*3 12.9 C 0 km/h
373 27-07-2020 07:00:00 13 C 10.43 g/m*3 13 C 0 km/h
374 27-07-2020 07:05:00 13.1 C 10.61 g/m*3 13.1 C 0 km/h
375 27-07-2020 07:10:00 13.2 C 10.68 g/m*3 13.2 C 0 km/h
Sensor: Nr:Datum:Temp:Abs-Feuchte:Windchill:Wind:
Aussen-T/F 376 27-07-2020 07:15:00 13.3 C 10.74 g/m*3 13.3 C 0 km/h
377 27-07-2020 07:20:00 13.4 C 10.81 g/m*3 13.4 C 1.6 km/h
378 27-07-2020 07:25:00 13.6 C 10.95 g/m*3 13.6 C 1.6 km/h
379 27-07-2020 07:30:00 13.8 C 11.08 g/m*3 13.8 C 0 km/h
380 27-07-2020 07:35:00 13.8 C 10.96 g/m*3 13.8 C 1.6 km/h
381 27-07-2020 07:40:00 13.9 C 11.03 g/m*3 13.9 C 0 km/h
382 27-07-2020 07:45:00 14.1 C 11.17 g/m*3 14.1 C 0 km/h
383 27-07-2020 07:50:00 14.2 C 11.23 g/m*3 14.2 C 0 km/h
384 27-07-2020 07:55:00 14.3 C 11.3 g/m*3 14.3 C 0 km/h
385 27-07-2020 08:00:00 14.4 C 11.25 g/m*3 14.4 C 0 km/h
386 27-07-2020 08:05:00 14.6 C 11.39 g/m*3 14.6 C 0 km/h
387 27-07-2020 08:10:00 14.8 C 11.53 g/m*3 14.8 C 0 km/h
388 27-07-2020 08:15:00 14.9 C 11.47 g/m*3 14.9 C 0 km/h
389 27-07-2020 08:20:00 15.1 C 11.61 g/m*3 15.1 C 0 km/h
390 27-07-2020 08:25:00 15.3 C 11.62 g/m*3 15.3 C 0 km/h
391 27-07-2020 08:30:00 15.4 C 11.69 g/m*3 15.4 C 0 km/h
392 27-07-2020 08:35:00 15.7 C 11.77 g/m*3 15.7 C 0 km/h
393 27-07-2020 08:40:00 15.8 C 11.71 g/m*3 15.8 C 0 km/h
394 27-07-2020 08:45:00 16.1 C 11.79 g/m*3 16.1 C 0 km/h
395 27-07-2020 08:50:00 16.2 C 11.86 g/m*3 16.2 C 0 km/h
396 27-07-2020 08:55:00 16.4 C 11.86 g/m*3 16.4 C 1.6 km/h
397 27-07-2020 09:00:00 16.6 C 12.01 g/m*3 16.6 C 1.6 km/h
398 27-07-2020 09:05:00 16.7 C 11.94 g/m*3 16.7 C 1.6 km/h
399 27-07-2020 09:10:00 16.7 C 11.94 g/m*3 16.7 C 0 km/h
400 27-07-2020 09:15:00 16.8 C 11.87 g/m*3 16.8 C 1.6 km/h
Sensor: Nr:Datum:Temp:Abs-Feuchte:Windchill:Wind:
Aussen-T/F 401 27-07-2020 09:20:00 16.9 C 11.94 g/m*3 16.9 C 0 km/h
402 27-07-2020 09:25:00 17.1 C 12.08 g/m*3 17.1 C 1.6 km/h
403 27-07-2020 09:30:00 17.2 C 12.01 g/m*3 17.2 C 1.6 km/h
404 27-07-2020 09:35:00 17.3 C 11.93 g/m*3 17.3 C 0 km/h
405 27-07-2020 09:40:00 17.4 C 12 g/m*3 17.4 C 1.6 km/h
406 27-07-2020 09:45:00 17.6 C 12.3 g/m*3 17.6 C 1.6 km/h
407 27-07-2020 09:50:00 17.9 C 12.37 g/m*3 17.9 C 1.6 km/h
408 27-07-2020 09:55:00 18.2 C 12.59 g/m*3 18.2 C 1.6 km/h
409 27-07-2020 10:00:00 18.5 C 12.5 g/m*3 18.5 C 4.8 km/h
410 27-07-2020 10:05:00 18.8 C 12.56 g/m*3 18.8 C 4.8 km/h
411 27-07-2020 10:10:00 18.9 C 12.8 g/m*3 18.9 C 0 km/h
412 27-07-2020 10:15:00 19.1 C 12.62 g/m*3 19.1 C 0 km/h
413 27-07-2020 10:20:00 19.4 C 12.85 g/m*3 19.4 C 3.2 km/h
414 27-07-2020 10:25:00 19.7 C 13.08 g/m*3 19.7 C 3.2 km/h
415 27-07-2020 10:30:00 20.1 C 13.39 g/m*3 20.1 C 1.6 km/h
416 27-07-2020 10:35:00 20.4 C 13.27 g/m*3 20.4 C 1.6 km/h
417 27-07-2020 10:40:00 20.6 C 13.42 g/m*3 20.6 C 0 km/h
418 27-07-2020 10:45:00 20.8 C 13.22 g/m*3 20.8 C 0 km/h
419 27-07-2020 10:50:00 21.1 C 13.45 g/m*3 21.1 C 1.6 km/h
420 27-07-2020 10:55:00 21.4 C 13.69 g/m*3 21.4 C 1.6 km/h
421 27-07-2020 11:00:00 21.6 C 13.47 g/m*3 21.6 C 3.2 km/h
422 27-07-2020 11:05:00 21.9 C 13.51 g/m*3 21.9 C 3.2 km/h
423 27-07-2020 11:10:00 22.1 C 13.27 g/m*3 22.1 C 4.8 km/h
424 27-07-2020 11:15:00 22.3 C 13.23 g/m*3 22.3 C 4.8 km/h
425 27-07-2020 11:20:00 22.6 C 13.26 g/m*3 22.6 C 3.2 km/h
Sensor: Nr:Datum:Temp:Abs-Feuchte:Windchill:Wind:
Aussen-T/F 426 27-07-2020 11:25:00 22.7 C 13.33 g/m*3 22.7 C 4.8 km/h
427 27-07-2020 11:30:00 22.9 C 13.08 g/m*3 22.9 C 1.6 km/h
428 27-07-2020 11:35:00 23.1 C 13.02 g/m*3 23.1 C 0 km/h
429 27-07-2020 11:40:00 23.3 C 12.96 g/m*3 23.3 C 0 km/h
430 27-07-2020 11:45:00 23.5 C 12.9 g/m*3 23.5 C 3.2 km/h
431 27-07-2020 11:50:00 23.7 C 12.83 g/m*3 23.7 C 1.6 km/h
432 27-07-2020 11:55:00 23.8 C 12.69 g/m*3 23.8 C 4.8 km/h
433 27-07-2020 12:00:00 24.1 C 12.91 g/m*3 24.1 C 4.8 km/h
434 27-07-2020 12:05:00 24.2 C 12.54 g/m*3 24.2 C 6.4 km/h
435 27-07-2020 12:10:00 24.2 C 12.32 g/m*3 24.2 C 6.4 km/h
436 27-07-2020 12:15:00 24.3 C 12.61 g/m*3 24.3 C 6.4 km/h
437 27-07-2020 12:20:00 24.4 C 12.46 g/m*3 24.4 C 4.8 km/h
438 27-07-2020 12:25:00 24.6 C 11.93 g/m*3 24.6 C 8.1 km/h
439 27-07-2020 12:30:00 24.7 C 12.45 g/m*3 24.7 C 9.7 km/h
440 27-07-2020 12:35:00 24.8 C 12.52 g/m*3 24.8 C 8.1 km/h
441 27-07-2020 12:40:00 25 C 12.43 g/m*3 25 C 9.7 km/h
442 27-07-2020 12:45:00 25.3 C 11.94 g/m*3 25.3 C 9.7 km/h
443 27-07-2020 12:50:00 25.8 C 11.56 g/m*3 25.8 C 16.1 km/h
444 27-07-2020 12:55:00 26.1 C 11.51 g/m*3 26.1 C 16.1 km/h
445 27-07-2020 13:00:00 26.2 C 11.32 g/m*3 26.2 C 12.9 km/h
446 27-07-2020 13:05:00 26.3 C 11.14 g/m*3 26.3 C 12.9 km/h
447 27-07-2020 13:10:00 26.3 C 11.14 g/m*3 26.3 C 9.7 km/h
448 27-07-2020 13:15:00 26.4 C 10.95 g/m*3 26.4 C 12.9 km/h
449 27-07-2020 13:20:00 26.5 C 10.76 g/m*3 26.5 C 12.9 km/h
450 27-07-2020 13:25:00 26.5 C 10.51 g/m*3 26.5 C 9.7 km/h
Sensor: Nr:Datum:Temp:Abs-Feuchte:Windchill:Wind:
Aussen-T/F 451 27-07-2020 13:30:00 26.4 C 10.95 g/m*3 26.4 C 6.4 km/h
452 27-07-2020 13:35:00 26.4 C 10.7 g/m*3 26.4 C 9.7 km/h
453 27-07-2020 13:40:00 26.6 C 10.57 g/m*3 26.6 C 11.3 km/h
454 27-07-2020 13:45:00 26.6 C 11.08 g/m*3 26.6 C 11.3 km/h
455 27-07-2020 13:50:00 26.8 C 10.94 g/m*3 26.8 C 16.1 km/h
456 27-07-2020 13:55:00 26.9 C 11.01 g/m*3 26.9 C 11.3 km/h
457 27-07-2020 14:00:00 27.1 C 10.87 g/m*3 27.1 C 9.7 km/h
458 27-07-2020 14:05:00 27.2 C 11.19 g/m*3 27.2 C 11.3 km/h
459 27-07-2020 14:10:00 27.2 C 11.19 g/m*3 27.2 C 11.3 km/h
460 27-07-2020 14:15:00 27.3 C 11.51 g/m*3 27.3 C 11.3 km/h
461 27-07-2020 14:20:00 27.3 C 11.77 g/m*3 27.3 C 11.3 km/h
462 27-07-2020 14:25:00 27.2 C 11.97 g/m*3 27.2 C 6.4 km/h
463 27-07-2020 14:30:00 27.3 C 12.3 g/m*3 27.3 C 11.3 km/h
464 27-07-2020 14:35:00 27.5 C 12.17 g/m*3 27.5 C 11.3 km/h
465 27-07-2020 14:40:00 27.7 C 12.57 g/m*3 27.7 C 11.3 km/h
466 27-07-2020 14:45:00 27.7 C 12.3 g/m*3 27.7 C 12.9 km/h
467 27-07-2020 14:50:00 27.7 C 12.57 g/m*3 27.7 C 6.4 km/h
468 27-07-2020 14:55:00 28 C 11.97 g/m*3 28 C 14.5 km/h
469 27-07-2020 15:00:00 28.3 C 12.44 g/m*3 28.3 C 11.3 km/h
470 27-07-2020 15:05:00 28.6 C 12.37 g/m*3 28.6 C 6.4 km/h
471 27-07-2020 15:10:00 28.8 C 11.65 g/m*3 28.8 C 8.1 km/h
472 27-07-2020 15:15:00 29.1 C 10.97 g/m*3 29.1 C 12.9 km/h
473 27-07-2020 15:20:00 29.2 C 11.32 g/m*3 29.2 C 14.5 km/h
474 27-07-2020 15:25:00 29.4 C 11.45 g/m*3 29.4 C 12.9 km/h
475 27-07-2020 15:30:00 29.4 C 11.45 g/m*3 29.4 C 8.1 km/h
Sensor: Nr:Datum:Temp:Abs-Feuchte:Windchill:Wind:
Aussen-T/F 476 27-07-2020 15:35:00 29.4 C 11.45 g/m*3 29.4 C 6.4 km/h
477 27-07-2020 15:40:00 29.4 C 11.74 g/m*3 29.4 C 8.1 km/h
478 27-07-2020 15:45:00 29.3 C 11.09 g/m*3 29.3 C 8.1 km/h
479 27-07-2020 15:50:00 29.1 C 10.97 g/m*3 29.1 C 12.9 km/h
480 27-07-2020 15:55:00 28.8 C 11.36 g/m*3 28.8 C 9.7 km/h
481 27-07-2020 16:00:00 28.7 C 10.74 g/m*3 28.7 C 6.4 km/h
482 27-07-2020 16:05:00 28.8 C 10.8 g/m*3 28.8 C 12.9 km/h
483 27-07-2020 16:10:00 28.7 C 10.74 g/m*3 28.7 C 12.9 km/h
484 27-07-2020 16:15:00 28.5 C 10.62 g/m*3 28.5 C 12.9 km/h
485 27-07-2020 16:20:00 28.4 C 10.84 g/m*3 28.4 C 8.1 km/h
486 27-07-2020 16:25:00 28.6 C 10.68 g/m*3 28.6 C 8.1 km/h
487 27-07-2020 16:30:00 28.8 C 10.51 g/m*3 28.8 C 6.4 km/h
488 27-07-2020 16:35:00 28.9 C 10.86 g/m*3 28.9 C 6.4 km/h
489 27-07-2020 16:40:00 29 C 11.2 g/m*3 29 C 8.1 km/h
490 27-07-2020 16:45:00 29.1 C 10.4 g/m*3 29.1 C 6.4 km/h
491 27-07-2020 16:50:00 29.3 C 10.51 g/m*3 29.3 C 6.4 km/h
492 27-07-2020 16:55:00 30 C 10.31 g/m*3 30 C 11.3 km/h
493 27-07-2020 17:00:00 30.5 C 10.9 g/m*3 30.5 C 12.9 km/h
494 27-07-2020 17:05:00 31 C 10.24 g/m*3 31 C 16.1 km/h
495 27-07-2020 17:10:00 31.4 C 10.14 g/m*3 31.4 C 12.9 km/h
496 27-07-2020 17:15:00 31.6 C 9.91 g/m*3 31.6 C 16.1 km/h
497 27-07-2020 17:20:00 31.7 C 10.3 g/m*3 31.7 C 9.7 km/h
498 27-07-2020 17:25:00 31.8 C 10.02 g/m*3 31.8 C 11.3 km/h
499 27-07-2020 17:30:00 31.7 C 10.3 g/m*3 31.7 C 4.8 km/h
500 27-07-2020 17:35:00 31.8 C 10.69 g/m*3 31.8 C 9.7 km/h
Sensor: Nr:Datum:Temp:Abs-Feuchte:Windchill:Wind:
Aussen-T/F 501 27-07-2020 17:40:00 32.2 C 9.55 g/m*3 32.2 C 19.3 km/h
502 27-07-2020 17:45:00 32.2 C 9.55 g/m*3 32.2 C 20.9 km/h
503 27-07-2020 17:50:00 32.1 C 9.84 g/m*3 32.1 C 20.9 km/h
504 27-07-2020 17:55:00 31.8 C 9.69 g/m*3 31.8 C 20.9 km/h
505 27-07-2020 18:00:00 31.8 C 9.69 g/m*3 31.8 C 17.7 km/h
506 27-07-2020 18:05:00 31.5 C 9.2 g/m*3 31.5 C 11.3 km/h
507 27-07-2020 18:10:00 31.1 C 9.65 g/m*3 31.1 C 9.7 km/h
508 27-07-2020 18:15:00 31.3 C 9.76 g/m*3 31.3 C 9.7 km/h
509 27-07-2020 18:20:00 31.7 C 10.3 g/m*3 31.7 C 8.1 km/h
510 27-07-2020 18:25:00 31.8 C 10.02 g/m*3 31.8 C 14.5 km/h
511 27-07-2020 18:30:00 31.3 C 10.41 g/m*3 31.3 C 12.9 km/h
512 27-07-2020 18:35:00 31.2 C 10.67 g/m*3 31.2 C 11.3 km/h
513 27-07-2020 18:40:00 31.1 C 10.3 g/m*3 31.1 C 11.3 km/h
514 27-07-2020 18:45:00 31 C 10.24 g/m*3 31 C 6.4 km/h
515 27-07-2020 18:50:00 30.8 C 10.13 g/m*3 30.8 C 8.1 km/h
516 27-07-2020 18:55:00 30.7 C 10.71 g/m*3 30.7 C 4.8 km/h
517 27-07-2020 19:00:00 30.7 C 11.65 g/m*3 30.7 C 3.2 km/h
518 27-07-2020 19:05:00 30.7 C 10.39 g/m*3 30.7 C 1.6 km/h
519 27-07-2020 19:10:00 30.8 C 11.08 g/m*3 30.8 C 0 km/h
520 27-07-2020 19:15:00 30.9 C 12.1 g/m*3 30.9 C 3.2 km/h
521 27-07-2020 19:20:00 30.8 C 11.71 g/m*3 30.8 C 3.2 km/h
522 27-07-2020 19:25:00 30.7 C 11.34 g/m*3 30.7 C 3.2 km/h
523 27-07-2020 19:30:00 30.6 C 11.9 g/m*3 30.6 C 3.2 km/h
524 27-07-2020 19:35:00 30.5 C 11.22 g/m*3 30.5 C 4.8 km/h
525 27-07-2020 19:40:00 30.4 C 12.7 g/m*3 30.4 C 1.6 km/h
Sensor: Nr:Datum:Temp:Abs-Feuchte:Windchill:Wind:
Aussen-T/F 526 27-07-2020 19:45:00 30.3 C 12.33 g/m*3 30.3 C 3.2 km/h
527 27-07-2020 19:50:00 30.2 C 12.57 g/m*3 30.2 C 3.2 km/h
528 27-07-2020 19:55:00 29.9 C 12.67 g/m*3 29.9 C 1.6 km/h
529 27-07-2020 20:00:00 29.7 C 12.53 g/m*3 29.7 C 1.6 km/h
530 27-07-2020 20:05:00 29.4 C 12.33 g/m*3 29.4 C 4.8 km/h
531 27-07-2020 20:10:00 29.3 C 12.55 g/m*3 29.3 C 4.8 km/h
532 27-07-2020 20:15:00 29.1 C 12.42 g/m*3 29.1 C 4.8 km/h
533 27-07-2020 20:20:00 28.9 C 12.57 g/m*3 28.9 C 4.8 km/h
534 27-07-2020 20:25:00 28.7 C 12.72 g/m*3 28.7 C 4.8 km/h
535 27-07-2020 20:30:00 28.4 C 12.51 g/m*3 28.4 C 6.4 km/h
536 27-07-2020 20:35:00 28.2 C 12.65 g/m*3 28.2 C 4.8 km/h
537 27-07-2020 20:40:00 28.1 C 12.58 g/m*3 28.1 C 4.8 km/h
538 27-07-2020 20:45:00 27.8 C 12.37 g/m*3 27.8 C 6.4 km/h
539 27-07-2020 20:50:00 27.7 C 12.04 g/m*3 27.7 C 6.4 km/h
540 27-07-2020 20:55:00 27.6 C 11.97 g/m*3 27.6 C 11.3 km/h
541 27-07-2020 21:00:00 27.5 C 12.43 g/m*3 27.5 C 6.4 km/h
542 27-07-2020 21:05:00 27.3 C 12.04 g/m*3 27.3 C 6.4 km/h
543 27-07-2020 21:10:00 26.9 C 12.03 g/m*3 26.9 C 6.4 km/h
544 27-07-2020 21:15:00 26.6 C 12.08 g/m*3 26.6 C 6.4 km/h
545 27-07-2020 21:20:00 26.3 C 11.88 g/m*3 26.3 C 6.4 km/h
546 27-07-2020 21:25:00 26.1 C 11.75 g/m*3 26.1 C 8.1 km/h
547 27-07-2020 21:30:00 25.8 C 11.8 g/m*3 25.8 C 6.4 km/h
548 27-07-2020 21:35:00 25.6 C 11.43 g/m*3 25.6 C 6.4 km/h
549 27-07-2020 21:40:00 25.4 C 11.77 g/m*3 25.4 C 6.4 km/h
550 27-07-2020 21:45:00 25.3 C 11.71 g/m*3 25.3 C 6.4 km/h
Sensor: Nr:Datum:Temp:Abs-Feuchte:Windchill:Wind:
Aussen-T/F 551 27-07-2020 21:50:00 25.2 C 11.64 g/m*3 25.2 C 6.4 km/h
552 27-07-2020 21:55:00 25.1 C 11.81 g/m*3 25.1 C 6.4 km/h
553 27-07-2020 22:00:00 25 C 11.74 g/m*3 25 C 4.8 km/h
554 27-07-2020 22:05:00 24.9 C 11.67 g/m*3 24.9 C 6.4 km/h
555 27-07-2020 22:10:00 24.8 C 11.61 g/m*3 24.8 C 6.4 km/h
556 27-07-2020 22:15:00 24.7 C 11.54 g/m*3 24.7 C 9.7 km/h
557 27-07-2020 22:20:00 24.6 C 11.7 g/m*3 24.6 C 0 km/h
558 27-07-2020 22:25:00 24.6 C 11.7 g/m*3 24.6 C 0 km/h
559 27-07-2020 22:30:00 24.5 C 11.86 g/m*3 24.5 C 0 km/h
560 27-07-2020 22:35:00 24.4 C 11.57 g/m*3 24.4 C 0 km/h
561 27-07-2020 22:40:00 24.4 C 11.57 g/m*3 24.4 C 4.8 km/h
562 27-07-2020 22:45:00 24.3 C 11.73 g/m*3 24.3 C 3.2 km/h
563 27-07-2020 22:50:00 24.2 C 11.66 g/m*3 24.2 C 1.6 km/h
564 27-07-2020 22:55:00 24.1 C 12.03 g/m*3 24.1 C 1.6 km/h
565 27-07-2020 23:00:00 24.1 C 12.03 g/m*3 24.1 C 0 km/h
566 27-07-2020 23:05:00 23.9 C 11.9 g/m*3 23.9 C 0 km/h
567 27-07-2020 23:10:00 23.8 C 12.05 g/m*3 23.8 C 0 km/h
568 27-07-2020 23:15:00 23.7 C 12.41 g/m*3 23.7 C 0 km/h
569 27-07-2020 23:20:00 23.5 C 12.05 g/m*3 23.5 C 0 km/h
570 27-07-2020 23:25:00 23.3 C 12.13 g/m*3 23.3 C 0 km/h
571 27-07-2020 23:30:00 23.2 C 12.06 g/m*3 23.2 C 0 km/h
572 27-07-2020 23:35:00 22.9 C 11.85 g/m*3 22.9 C 0 km/h
573 27-07-2020 23:40:00 22.8 C 11.79 g/m*3 22.8 C 0 km/h
574 27-07-2020 23:45:00 22.6 C 11.85 g/m*3 22.6 C 0 km/h
575 27-07-2020 23:50:00 22.3 C 11.85 g/m*3 22.3 C 0 km/h
Sensor: Nr:Datum:Temp:Abs-Feuchte:Windchill:Wind:
Aussen-T/F 576 27-07-2020 23:55:00 22.2 C 11.58 g/m*3 22.2 C 0 km/h
577 28-07-2020 00:00:00 22.1 C 11.52 g/m*3 22.1 C 0 km/h
578 28-07-2020 00:05:00 21.9 C 11.58 g/m*3 21.9 C 0 km/h
579 28-07-2020 00:10:00 21.8 C 11.7 g/m*3 21.8 C 0 km/h
580 28-07-2020 00:15:00 21.7 C 11.45 g/m*3 21.7 C 0 km/h
581 28-07-2020 00:20:00 21.6 C 11.57 g/m*3 21.6 C 0 km/h
582 28-07-2020 00:25:00 21.5 C 11.69 g/m*3 21.5 C 0 km/h
583 28-07-2020 00:30:00 21.4 C 11.62 g/m*3 21.4 C 0 km/h
584 28-07-2020 00:35:00 21.3 C 11.56 g/m*3 21.3 C 0 km/h
585 28-07-2020 00:40:00 21.3 C 11.56 g/m*3 21.3 C 0 km/h
586 28-07-2020 00:45:00 21.3 C 11.56 g/m*3 21.3 C 0 km/h
587 28-07-2020 00:50:00 21.3 C 11.56 g/m*3 21.3 C 0 km/h
588 28-07-2020 00:55:00 21.3 C 11.56 g/m*3 21.3 C 0 km/h
589 28-07-2020 01:00:00 21.4 C 11.44 g/m*3 21.4 C 0 km/h
590 28-07-2020 01:05:00 21.6 C 11.95 g/m*3 21.6 C 0 km/h
591 28-07-2020 01:10:00 21.7 C 11.64 g/m*3 21.7 C 0 km/h
592 28-07-2020 01:15:00 21.8 C 11.7 g/m*3 21.8 C 0 km/h
593 28-07-2020 01:20:00 21.8 C 11.51 g/m*3 21.8 C 0 km/h
594 28-07-2020 01:25:00 21.9 C 11.77 g/m*3 21.9 C 0 km/h
595 28-07-2020 01:30:00 21.9 C 11.58 g/m*3 21.9 C 0 km/h
596 28-07-2020 01:35:00 22.1 C 11.91 g/m*3 22.1 C 0 km/h
597 28-07-2020 01:40:00 22.1 C 11.71 g/m*3 22.1 C 0 km/h
598 28-07-2020 01:45:00 22.2 C 11.98 g/m*3 22.2 C 0 km/h
599 28-07-2020 01:50:00 22.2 C 11.98 g/m*3 22.2 C 0 km/h
600 28-07-2020 01:55:00 22.2 C 11.78 g/m*3 22.2 C 0 km/h
Sensor: Nr:Datum:Temp:Abs-Feuchte:Windchill:Wind:
Aussen-T/F 601 28-07-2020 02:00:00 22.2 C 11.58 g/m*3 22.2 C 3.2 km/h
602 28-07-2020 02:05:00 22.2 C 11.58 g/m*3 22.2 C 6.4 km/h
603 28-07-2020 02:10:00 22.3 C 11.45 g/m*3 22.3 C 1.6 km/h
604 28-07-2020 02:15:00 22.4 C 11.72 g/m*3 22.4 C 0 km/h
605 28-07-2020 02:20:00 22.4 C 11.92 g/m*3 22.4 C 0 km/h
606 28-07-2020 02:25:00 22.3 C 11.65 g/m*3 22.3 C 3.2 km/h
607 28-07-2020 02:30:00 22.3 C 11.85 g/m*3 22.3 C 1.6 km/h
608 28-07-2020 02:35:00 22.3 C 12.05 g/m*3 22.3 C 0 km/h
609 28-07-2020 02:40:00 22.2 C 11.98 g/m*3 22.2 C 1.6 km/h
610 28-07-2020 02:45:00 22 C 11.84 g/m*3 22 C 3.2 km/h
611 28-07-2020 02:50:00 21.9 C 11.77 g/m*3 21.9 C 4.8 km/h
612 28-07-2020 02:55:00 21.8 C 11.7 g/m*3 21.8 C 1.6 km/h
613 28-07-2020 03:00:00 21.7 C 11.64 g/m*3 21.7 C 1.6 km/h
614 28-07-2020 03:05:00 21.7 C 11.64 g/m*3 21.7 C 1.6 km/h
615 28-07-2020 03:10:00 21.6 C 11.57 g/m*3 21.6 C 0 km/h
616 28-07-2020 03:15:00 21.6 C 11.76 g/m*3 21.6 C 1.6 km/h
617 28-07-2020 03:20:00 21.4 C 11.62 g/m*3 21.4 C 0 km/h
618 28-07-2020 03:25:00 21.3 C 11.56 g/m*3 21.3 C 0 km/h
619 28-07-2020 03:30:00 21.2 C 11.49 g/m*3 21.2 C 0 km/h
620 28-07-2020 03:35:00 21 C 11.54 g/m*3 21 C 0 km/h
621 28-07-2020 03:40:00 20.8 C 11.41 g/m*3 20.8 C 3.2 km/h
622 28-07-2020 03:45:00 20.7 C 11.52 g/m*3 20.7 C 1.6 km/h
623 28-07-2020 03:50:00 20.6 C 11.45 g/m*3 20.6 C 4.8 km/h
624 28-07-2020 03:55:00 20.4 C 11.5 g/m*3 20.4 C 1.6 km/h
625 28-07-2020 04:00:00 20.4 C 11.5 g/m*3 20.4 C 1.6 km/h
Sensor: Nr:Datum:Temp:Abs-Feuchte:Windchill:Wind:
Aussen-T/F 626 28-07-2020 04:05:00 20.4 C 11.85 g/m*3 20.4 C 4.8 km/h
627 28-07-2020 04:10:00 20.4 C 11.85 g/m*3 20.4 C 8.1 km/h
628 28-07-2020 04:15:00 20.3 C 11.61 g/m*3 20.3 C 6.4 km/h
629 28-07-2020 04:20:00 20.2 C 11.54 g/m*3 20.2 C 6.4 km/h
630 28-07-2020 04:25:00 20.2 C 11.71 g/m*3 20.2 C 3.2 km/h
631 28-07-2020 04:30:00 20.1 C 11.65 g/m*3 20.1 C 1.6 km/h
632 28-07-2020 04:35:00 20.1 C 11.13 g/m*3 20.1 C 3.2 km/h
633 28-07-2020 04:40:00 20.1 C 11.3 g/m*3 20.1 C 4.8 km/h
634 28-07-2020 04:45:00 20.1 C 11.47 g/m*3 20.1 C 4.8 km/h
635 28-07-2020 04:50:00 20.1 C 11.47 g/m*3 20.1 C 4.8 km/h
636 28-07-2020 04:55:00 19.9 C 10.82 g/m*3 19.9 C 4.8 km/h
637 28-07-2020 05:00:00 19.9 C 11.17 g/m*3 19.9 C 3.2 km/h
638 28-07-2020 05:05:00 19.9 C 11.17 g/m*3 19.9 C 8.1 km/h
639 28-07-2020 05:10:00 19.9 C 11.34 g/m*3 19.9 C 8.1 km/h
640 28-07-2020 05:15:00 20 C 11.06 g/m*3 20 C 1.6 km/h
641 28-07-2020 05:20:00 20 C 10.89 g/m*3 20 C 1.6 km/h
642 28-07-2020 05:25:00 20.1 C 10.95 g/m*3 20.1 C 1.6 km/h
643 28-07-2020 05:30:00 20.2 C 11.19 g/m*3 20.2 C 0 km/h
644 28-07-2020 05:35:00 20.2 C 11.19 g/m*3 20.2 C 1.6 km/h
645 28-07-2020 05:40:00 20.2 C 11.02 g/m*3 20.2 C 1.6 km/h
646 28-07-2020 05:45:00 20.2 C 11.19 g/m*3 20.2 C 3.2 km/h
647 28-07-2020 05:50:00 20.2 C 11.37 g/m*3 20.2 C 0 km/h
648 28-07-2020 05:55:00 20.1 C 11.47 g/m*3 20.1 C 0 km/h
649 28-07-2020 06:00:00 20 C 11.41 g/m*3 20 C 1.6 km/h
650 28-07-2020 06:05:00 19.9 C 11.51 g/m*3 19.9 C 0 km/h
Sensor: Nr:Datum:Temp:Abs-Feuchte:Windchill:Wind:
Aussen-T/F 651 28-07-2020 06:10:00 19.8 C 11.44 g/m*3 19.8 C 0 km/h
652 28-07-2020 06:15:00 19.7 C 11.38 g/m*3 19.7 C 0 km/h
653 28-07-2020 06:20:00 19.7 C 11.55 g/m*3 19.7 C 0 km/h
654 28-07-2020 06:25:00 19.7 C 11.72 g/m*3 19.7 C 1.6 km/h
655 28-07-2020 06:30:00 19.6 C 11.82 g/m*3 19.6 C 0 km/h
656 28-07-2020 06:35:00 19.6 C 11.82 g/m*3 19.6 C 0 km/h
657 28-07-2020 06:40:00 19.6 C 11.82 g/m*3 19.6 C 0 km/h
658 28-07-2020 06:45:00 19.6 C 11.82 g/m*3 19.6 C 0 km/h
659 28-07-2020 06:50:00 19.6 C 11.65 g/m*3 19.6 C 0 km/h
660 28-07-2020 06:55:00 19.6 C 11.82 g/m*3 19.6 C 0 km/h
661 28-07-2020 07:00:00 19.6 C 11.82 g/m*3 19.6 C 0 km/h
662 28-07-2020 07:05:00 19.7 C 12.06 g/m*3 19.7 C 0 km/h
663 28-07-2020 07:10:00 19.7 C 11.89 g/m*3 19.7 C 0 km/h
664 28-07-2020 07:15:00 19.9 C 11.85 g/m*3 19.9 C 3.2 km/h
665 28-07-2020 07:20:00 20.1 C 11.82 g/m*3 20.1 C 0 km/h
666 28-07-2020 07:25:00 20.3 C 11.96 g/m*3 20.3 C 3.2 km/h
667 28-07-2020 07:30:00 20.4 C 12.03 g/m*3 20.4 C 3.2 km/h
668 28-07-2020 07:35:00 20.6 C 11.99 g/m*3 20.6 C 3.2 km/h
669 28-07-2020 07:40:00 20.7 C 12.06 g/m*3 20.7 C 3.2 km/h
670 28-07-2020 07:45:00 20.9 C 12.38 g/m*3 20.9 C 4.8 km/h
671 28-07-2020 07:50:00 21.1 C 12.71 g/m*3 21.1 C 8.1 km/h
672 28-07-2020 07:55:00 21.2 C 12.6 g/m*3 21.2 C 6.4 km/h
673 28-07-2020 08:00:00 21.3 C 12.68 g/m*3 21.3 C 3.2 km/h
674 28-07-2020 08:05:00 21.5 C 12.63 g/m*3 21.5 C 6.4 km/h
675 28-07-2020 08:10:00 21.6 C 12.71 g/m*3 21.6 C 9.7 km/h
Sensor: Nr:Datum:Temp:Abs-Feuchte:Windchill:Wind:
Aussen-T/F 676 28-07-2020 08:15:00 21.6 C 12.52 g/m*3 21.6 C 6.4 km/h
677 28-07-2020 08:20:00 21.7 C 12.59 g/m*3 21.7 C 4.8 km/h
678 28-07-2020 08:25:00 21.8 C 12.85 g/m*3 21.8 C 6.4 km/h
679 28-07-2020 08:30:00 21.8 C 12.85 g/m*3 21.8 C 9.7 km/h
680 28-07-2020 08:35:00 21.9 C 12.93 g/m*3 21.9 C 9.7 km/h
681 28-07-2020 08:40:00 21.9 C 13.12 g/m*3 21.9 C 12.9 km/h
682 28-07-2020 08:45:00 21.8 C 13.24 g/m*3 21.8 C 11.3 km/h
683 28-07-2020 08:50:00 21.8 C 13.24 g/m*3 21.8 C 6.4 km/h
684 28-07-2020 08:55:00 21.9 C 13.31 g/m*3 21.9 C 11.3 km/h
685 28-07-2020 09:00:00 22 C 13.39 g/m*3 22 C 9.7 km/h
686 28-07-2020 09:05:00 22.1 C 13.27 g/m*3 22.1 C 9.7 km/h
687 28-07-2020 09:10:00 22.2 C 13.35 g/m*3 22.2 C 12.9 km/h
688 28-07-2020 09:15:00 22.3 C 13.43 g/m*3 22.3 C 11.3 km/h
689 28-07-2020 09:20:00 22.4 C 13.5 g/m*3 22.4 C 11.3 km/h
690 28-07-2020 09:25:00 22.5 C 13.38 g/m*3 22.5 C 11.3 km/h
691 28-07-2020 09:30:00 22.6 C 13.46 g/m*3 22.6 C 12.9 km/h
692 28-07-2020 09:35:00 22.8 C 13.61 g/m*3 22.8 C 11.3 km/h
693 28-07-2020 09:40:00 22.9 C 13.28 g/m*3 22.9 C 12.9 km/h
694 28-07-2020 09:45:00 22.9 C 13.49 g/m*3 22.9 C 17.7 km/h
695 28-07-2020 09:50:00 22.9 C 13.08 g/m*3 22.9 C 17.7 km/h
696 28-07-2020 09:55:00 22.9 C 12.88 g/m*3 22.9 C 16.1 km/h
697 28-07-2020 10:00:00 22.8 C 12.8 g/m*3 22.8 C 12.9 km/h
698 28-07-2020 10:05:00 22.8 C 12.8 g/m*3 22.8 C 14.5 km/h
699 28-07-2020 10:10:00 22.8 C 12.8 g/m*3 22.8 C 14.5 km/h
700 28-07-2020 10:15:00 22.9 C 12.67 g/m*3 22.9 C 19.3 km/h
Sensor: Nr:Datum:Temp:Abs-Feuchte:Windchill:Wind:
Aussen-T/F 701 28-07-2020 10:20:00 22.8 C 12.8 g/m*3 22.8 C 17.7 km/h
702 28-07-2020 10:25:00 22.7 C 12.73 g/m*3 22.7 C 19.3 km/h
703 28-07-2020 10:30:00 22.7 C 12.53 g/m*3 22.7 C 16.1 km/h
704 28-07-2020 10:35:00 22.8 C 12.4 g/m*3 22.8 C 11.3 km/h
705 28-07-2020 10:40:00 23.1 C 12.61 g/m*3 23.1 C 12.9 km/h
706 28-07-2020 10:45:00 23.6 C 12.34 g/m*3 23.6 C 19.3 km/h
707 28-07-2020 10:50:00 23.7 C 12.19 g/m*3 23.7 C 17.7 km/h
708 28-07-2020 10:55:00 23.7 C 12.41 g/m*3 23.7 C 17.7 km/h
709 28-07-2020 11:00:00 23.7 C 12.41 g/m*3 23.7 C 14.5 km/h
710 28-07-2020 11:05:00 23.7 C 12.19 g/m*3 23.7 C 20.9 km/h
711 28-07-2020 11:10:00 23.7 C 12.19 g/m*3 23.7 C 16.1 km/h
712 28-07-2020 11:15:00 23.7 C 12.19 g/m*3 23.7 C 12.9 km/h
713 28-07-2020 11:20:00 23.6 C 12.12 g/m*3 23.6 C 12.9 km/h
714 28-07-2020 11:25:00 23.7 C 12.19 g/m*3 23.7 C 12.9 km/h
715 28-07-2020 11:30:00 23.7 C 12.19 g/m*3 23.7 C 16.1 km/h
716 28-07-2020 11:35:00 23.8 C 12.26 g/m*3 23.8 C 14.5 km/h
717 28-07-2020 11:40:00 23.8 C 12.05 g/m*3 23.8 C 19.3 km/h
718 28-07-2020 11:45:00 24 C 12.18 g/m*3 24 C 16.1 km/h
719 28-07-2020 11:50:00 24.2 C 12.1 g/m*3 24.2 C 16.1 km/h
720 28-07-2020 11:55:00 24.4 C 12.24 g/m*3 24.4 C 17.7 km/h
721 28-07-2020 12:00:00 24.3 C 11.95 g/m*3 24.3 C 19.3 km/h
722 28-07-2020 12:05:00 24.1 C 11.82 g/m*3 24.1 C 11.3 km/h
723 28-07-2020 12:10:00 23.8 C 11.83 g/m*3 23.8 C 16.1 km/h
724 28-07-2020 12:15:00 23.8 C 11.83 g/m*3 23.8 C 14.5 km/h
725 28-07-2020 12:20:00 24 C 11.97 g/m*3 24 C 17.7 km/h
Sensor: Nr:Datum:Temp:Abs-Feuchte:Windchill:Wind:
Aussen-T/F 726 28-07-2020 12:25:00 24.3 C 11.95 g/m*3 24.3 C 19.3 km/h
727 28-07-2020 12:30:00 24.7 C 12 g/m*3 24.7 C 16.1 km/h
728 28-07-2020 12:35:00 24.7 C 12 g/m*3 24.7 C 16.1 km/h
729 28-07-2020 12:40:00 24.6 C 11.93 g/m*3 24.6 C 12.9 km/h
730 28-07-2020 12:45:00 24.6 C 12.15 g/m*3 24.6 C 11.3 km/h
731 28-07-2020 12:50:00 24.9 C 11.22 g/m*3 24.9 C 20.9 km/h
732 28-07-2020 12:55:00 25.3 C 11.24 g/m*3 25.3 C 17.7 km/h
733 28-07-2020 13:00:00 25.5 C 11.6 g/m*3 25.5 C 17.7 km/h
734 28-07-2020 13:05:00 25.5 C 11.36 g/m*3 25.5 C 16.1 km/h
735 28-07-2020 13:10:00 25.4 C 11.06 g/m*3 25.4 C 22.5 km/h
736 28-07-2020 13:15:00 25.4 C 11.3 g/m*3 25.4 C 19.3 km/h
737 28-07-2020 13:20:00 25.7 C 11.01 g/m*3 25.7 C 20.9 km/h
738 28-07-2020 13:25:00 25.6 C 11.19 g/m*3 25.6 C 19.3 km/h
739 28-07-2020 13:30:00 25.6 C 11.19 g/m*3 25.6 C 17.7 km/h
740 28-07-2020 13:35:00 25.7 C 10.77 g/m*3 25.7 C 19.3 km/h
741 28-07-2020 13:40:00 25.8 C 10.59 g/m*3 25.8 C 19.3 km/h
742 28-07-2020 13:45:00 25.7 C 10.77 g/m*3 25.7 C 12.9 km/h
743 28-07-2020 13:50:00 25.5 C 10.89 g/m*3 25.5 C 16.1 km/h
744 28-07-2020 13:55:00 25.4 C 11.06 g/m*3 25.4 C 14.5 km/h
745 28-07-2020 14:00:00 25.6 C 10.95 g/m*3 25.6 C 16.1 km/h
746 28-07-2020 14:05:00 25.7 C 10.53 g/m*3 25.7 C 20.9 km/h
747 28-07-2020 14:10:00 25.8 C 10.83 g/m*3 25.8 C 16.1 km/h
748 28-07-2020 14:15:00 26.1 C 10.53 g/m*3 26.1 C 19.3 km/h
749 28-07-2020 14:20:00 26.1 C 11.02 g/m*3 26.1 C 9.7 km/h
750 28-07-2020 14:25:00 26 C 10.96 g/m*3 26 C 11.3 km/h
Sensor: Nr:Datum:Temp:Abs-Feuchte:Windchill:Wind:
Aussen-T/F 751 28-07-2020 14:30:00 25.9 C 10.65 g/m*3 25.9 C 9.7 km/h
752 28-07-2020 14:35:00 25.9 C 10.65 g/m*3 25.9 C 17.7 km/h
753 28-07-2020 14:40:00 25.9 C 10.65 g/m*3 25.9 C 12.9 km/h
754 28-07-2020 14:45:00 25.9 C 10.41 g/m*3 25.9 C 17.7 km/h
755 28-07-2020 14:50:00 26.1 C 10.04 g/m*3 26.1 C 20.9 km/h
756 28-07-2020 14:55:00 26.2 C 10.34 g/m*3 26.2 C 12.9 km/h
757 28-07-2020 15:00:00 26.3 C 10.64 g/m*3 26.3 C 14.5 km/h
758 28-07-2020 15:05:00 26.4 C 10.21 g/m*3 26.4 C 12.9 km/h
759 28-07-2020 15:10:00 26.5 C 10.26 g/m*3 26.5 C 17.7 km/h
760 28-07-2020 15:15:00 26.4 C 10.21 g/m*3 26.4 C 16.1 km/h
761 28-07-2020 15:20:00 26.4 C 9.96 g/m*3 26.4 C 16.1 km/h
762 28-07-2020 15:25:00 26.3 C 10.15 g/m*3 26.3 C 12.9 km/h
763 28-07-2020 15:30:00 26.3 C 10.4 g/m*3 26.3 C 6.4 km/h
764 28-07-2020 15:35:00 26.2 C 10.34 g/m*3 26.2 C 11.3 km/h
765 28-07-2020 15:40:00 26.1 C 9.79 g/m*3 26.1 C 19.3 km/h
766 28-07-2020 15:45:00 26.1 C 9.79 g/m*3 26.1 C 11.3 km/h
767 28-07-2020 15:50:00 26.1 C 9.79 g/m*3 26.1 C 14.5 km/h
768 28-07-2020 15:55:00 26.1 C 9.79 g/m*3 26.1 C 14.5 km/h
769 28-07-2020 16:00:00 26.4 C 9.71 g/m*3 26.4 C 11.3 km/h
770 28-07-2020 16:05:00 26.5 C 10.01 g/m*3 26.5 C 14.5 km/h
771 28-07-2020 16:10:00 26.6 C 10.32 g/m*3 26.6 C 14.5 km/h
772 28-07-2020 16:15:00 26.6 C 10.32 g/m*3 26.6 C 12.9 km/h
773 28-07-2020 16:20:00 26.8 C 10.18 g/m*3 26.8 C 14.5 km/h
774 28-07-2020 16:25:00 27.1 C 10.09 g/m*3 27.1 C 12.9 km/h
775 28-07-2020 16:30:00 27.3 C 10.2 g/m*3 27.3 C 16.1 km/h
Sensor: Nr:Datum:Temp:Abs-Feuchte:Windchill:Wind:
Aussen-T/F 776 28-07-2020 16:35:00 27.2 C 9.89 g/m*3 27.2 C 14.5 km/h
777 28-07-2020 16:40:00 27.2 C 10.15 g/m*3 27.2 C 9.7 km/h
778 28-07-2020 16:45:00 27.3 C 10.2 g/m*3 27.3 C 9.7 km/h
779 28-07-2020 16:50:00 27.6 C 10.11 g/m*3 27.6 C 19.3 km/h
780 28-07-2020 16:55:00 27.7 C 10.43 g/m*3 27.7 C 17.7 km/h
781 28-07-2020 17:00:00 27.3 C 10.2 g/m*3 27.3 C 12.9 km/h
782 28-07-2020 17:05:00 27.1 C 10.09 g/m*3 27.1 C 14.5 km/h
783 28-07-2020 17:10:00 27.1 C 10.35 g/m*3 27.1 C 14.5 km/h
784 28-07-2020 17:15:00 27.6 C 10.38 g/m*3 27.6 C 14.5 km/h
785 28-07-2020 17:20:00 27.9 C 9.74 g/m*3 27.9 C 20.9 km/h
786 28-07-2020 17:25:00 27.7 C 9.63 g/m*3 27.7 C 17.7 km/h
787 28-07-2020 17:30:00 27.7 C 9.63 g/m*3 27.7 C 20.9 km/h
788 28-07-2020 17:35:00 27.4 C 9.47 g/m*3 27.4 C 16.1 km/h
789 28-07-2020 17:40:00 27.1 C 9.58 g/m*3 27.1 C 14.5 km/h
790 28-07-2020 17:45:00 27.2 C 9.37 g/m*3 27.2 C 16.1 km/h
791 28-07-2020 17:50:00 27.2 C 9.11 g/m*3 27.2 C 17.7 km/h
792 28-07-2020 17:55:00 27.5 C 9 g/m*3 27.5 C 11.3 km/h
793 28-07-2020 18:00:00 27.7 C 9.36 g/m*3 27.7 C 19.3 km/h
794 28-07-2020 18:05:00 27.4 C 9.21 g/m*3 27.4 C 19.3 km/h
795 28-07-2020 18:10:00 27.2 C 9.63 g/m*3 27.2 C 14.5 km/h
796 28-07-2020 18:15:00 27.3 C 9.68 g/m*3 27.3 C 12.9 km/h
797 28-07-2020 18:20:00 27.4 C 9.47 g/m*3 27.4 C 9.7 km/h
798 28-07-2020 18:25:00 27.1 C 9.58 g/m*3 27.1 C 12.9 km/h
799 28-07-2020 18:30:00 27.1 C 9.83 g/m*3 27.1 C 11.3 km/h
800 28-07-2020 18:35:00 27.2 C 9.63 g/m*3 27.2 C 14.5 km/h
Sensor: Nr:Datum:Temp:Abs-Feuchte:Windchill:Wind:
Aussen-T/F 801 28-07-2020 18:40:00 27.2 C 9.63 g/m*3 27.2 C 14.5 km/h
802 28-07-2020 18:45:00 27.2 C 9.37 g/m*3 27.2 C 12.9 km/h
803 28-07-2020 18:50:00 27.2 C 9.63 g/m*3 27.2 C 11.3 km/h
804 28-07-2020 18:55:00 27.3 C 9.68 g/m*3 27.3 C 9.7 km/h
805 28-07-2020 19:00:00 27.3 C 9.68 g/m*3 27.3 C 14.5 km/h
806 28-07-2020 19:05:00 27.1 C 9.58 g/m*3 27.1 C 14.5 km/h
807 28-07-2020 19:10:00 26.6 C 9.57 g/m*3 26.6 C 16.1 km/h
808 28-07-2020 19:15:00 26.1 C 9.3 g/m*3 26.1 C 17.7 km/h
809 28-07-2020 19:20:00 25.7 C 9.34 g/m*3 25.7 C 14.5 km/h
810 28-07-2020 19:25:00 25.4 C 9.42 g/m*3 25.4 C 16.1 km/h
811 28-07-2020 19:30:00 25.3 C 9.36 g/m*3 25.3 C 14.5 km/h
812 28-07-2020 19:35:00 25.3 C 9.13 g/m*3 25.3 C 12.9 km/h
813 28-07-2020 19:40:00 25.1 C 9.03 g/m*3 25.1 C 16.1 km/h
814 28-07-2020 19:45:00 24.8 C 8.88 g/m*3 24.8 C 17.7 km/h
815 28-07-2020 19:50:00 24.6 C 8.78 g/m*3 24.6 C 17.7 km/h
816 28-07-2020 19:55:00 24.2 C 8.8 g/m*3 24.2 C 16.1 km/h
817 28-07-2020 20:00:00 23.9 C 8.65 g/m*3 23.9 C 11.3 km/h
818 28-07-2020 20:05:00 23.9 C 8.65 g/m*3 23.9 C 16.1 km/h
819 28-07-2020 20:10:00 23.9 C 8.87 g/m*3 23.9 C 8.1 km/h
820 28-07-2020 20:15:00 23.9 C 8.65 g/m*3 23.9 C 14.5 km/h
821 28-07-2020 20:20:00 23.7 C 8.77 g/m*3 23.7 C 12.9 km/h
822 28-07-2020 20:25:00 23.4 C 8.83 g/m*3 23.4 C 17.7 km/h
823 28-07-2020 20:30:00 23.2 C 8.73 g/m*3 23.2 C 11.3 km/h
824 28-07-2020 20:35:00 23.1 C 9.1 g/m*3 23.1 C 11.3 km/h
825 28-07-2020 20:40:00 22.7 C 9.29 g/m*3 22.7 C 8.1 km/h
Sensor: Nr:Datum:Temp:Abs-Feuchte:Windchill:Wind:
Aussen-T/F 826 28-07-2020 20:45:00 22.4 C 9.14 g/m*3 22.4 C 8.1 km/h
827 28-07-2020 20:50:00 22.2 C 9.03 g/m*3 22.2 C 9.7 km/h
828 28-07-2020 20:55:00 21.9 C 8.88 g/m*3 21.9 C 9.7 km/h
829 28-07-2020 21:00:00 21.8 C 9.02 g/m*3 21.8 C 11.3 km/h
830 28-07-2020 21:05:00 21.7 C 8.97 g/m*3 21.7 C 8.1 km/h
831 28-07-2020 21:10:00 21.6 C 8.72 g/m*3 21.6 C 8.1 km/h
832 28-07-2020 21:15:00 21.4 C 8.62 g/m*3 21.4 C 6.4 km/h
833 28-07-2020 21:20:00 21.3 C 8.95 g/m*3 21.3 C 4.8 km/h
834 28-07-2020 21:25:00 21.2 C 9.08 g/m*3 21.2 C 6.4 km/h
835 28-07-2020 21:30:00 21 C 8.79 g/m*3 21 C 6.4 km/h
836 28-07-2020 21:35:00 20.9 C 8.92 g/m*3 20.9 C 4.8 km/h
837 28-07-2020 21:40:00 20.7 C 9 g/m*3 20.7 C 6.4 km/h
838 28-07-2020 21:45:00 20.5 C 9.25 g/m*3 20.5 C 0 km/h
839 28-07-2020 21:50:00 20.2 C 9.09 g/m*3 20.2 C 3.2 km/h
840 28-07-2020 21:55:00 19.9 C 8.93 g/m*3 19.9 C 4.8 km/h
841 28-07-2020 22:00:00 19.7 C 9 g/m*3 19.7 C 4.8 km/h
842 28-07-2020 22:05:00 19.6 C 9.12 g/m*3 19.6 C 3.2 km/h
843 28-07-2020 22:10:00 19.4 C 9.01 g/m*3 19.4 C 8.1 km/h
844 28-07-2020 22:15:00 19.4 C 9.01 g/m*3 19.4 C 8.1 km/h
845 28-07-2020 22:20:00 19.3 C 8.96 g/m*3 19.3 C 4.8 km/h
846 28-07-2020 22:25:00 19.3 C 8.96 g/m*3 19.3 C 3.2 km/h
847 28-07-2020 22:30:00 19.2 C 8.9 g/m*3 19.2 C 1.6 km/h
848 28-07-2020 22:35:00 19.2 C 9.07 g/m*3 19.2 C 3.2 km/h
849 28-07-2020 22:40:00 19.2 C 9.07 g/m*3 19.2 C 9.7 km/h
850 28-07-2020 22:45:00 19.2 C 9.07 g/m*3 19.2 C 3.2 km/h
Sensor: Nr:Datum:Temp:Abs-Feuchte:Windchill:Wind:
Aussen-T/F 851 28-07-2020 22:50:00 19.1 C 9.18 g/m*3 19.1 C 3.2 km/h
852 28-07-2020 22:55:00 19.1 C 9.18 g/m*3 19.1 C 3.2 km/h
853 28-07-2020 23:00:00 19.1 C 9.18 g/m*3 19.1 C 3.2 km/h
854 28-07-2020 23:05:00 19.1 C 9.18 g/m*3 19.1 C 6.4 km/h
855 28-07-2020 23:10:00 19 C 9.13 g/m*3 19 C 11.3 km/h
856 28-07-2020 23:15:00 19.1 C 9.34 g/m*3 19.1 C 8.1 km/h
857 28-07-2020 23:20:00 19.1 C 9.34 g/m*3 19.1 C 4.8 km/h
858 28-07-2020 23:25:00 18.9 C 9.23 g/m*3 18.9 C 4.8 km/h
859 28-07-2020 23:30:00 18.8 C 9.34 g/m*3 18.8 C 0 km/h
860 28-07-2020 23:35:00 18.6 C 9.39 g/m*3 18.6 C 0 km/h
861 28-07-2020 23:40:00 18.4 C 9.28 g/m*3 18.4 C 0 km/h
862 28-07-2020 23:45:00 18.2 C 9.33 g/m*3 18.2 C 0 km/h
863 28-07-2020 23:50:00 18 C 9.37 g/m*3 18 C 0 km/h
864 28-07-2020 23:55:00 17.7 C 9.2 g/m*3 17.7 C 0 km/h

Legende:
   Min
   Max


Maximal/Minimal-Werte vom 26.07.2020 - 28.07.2020

Sensor Min Max Avg
Temp
(Aussen-T/F)
12.7 °C
27-07-2020  04:40:00
32.2 °C
27-07-2020  17:40:00
21.82 °C
Abs-Feuchte
(Aussen-T/F)
8.62 g/m*3
28-07-2020  21:15:00
15.37 g/m*3
26-07-2020  13:10:00
11.57 g/m*3
Windchill
(Aussen-T/F)
12.7 C
27-07-2020  04:40:00
32.2 C
27-07-2020  17:40:00
21.79 C

Die Daten stammen von einer Davis Vantage Pro 2 Wetter-Station und werden unter Linux mit der Software wview2wettercgi und aufbereitet. Alle Angaben erfolgen ohne Gewähr für ihre Vollständigkeit oder Richtigkeit.
Kontakt: Rainer Krienke krienke@uni-koblenz.de . Meine Webseiten an der Uni Koblenz oder privat.
Version: $Revision: 0.78 $